createdAt,value
2022-07-31T00:02:08.242Z,16.00
2022-07-31T00:04:35.156Z,16.00
2022-07-31T00:07:02.430Z,15.90
2022-07-31T00:09:48.921Z,15.90
2022-07-31T00:12:17.599Z,15.90
2022-07-31T00:14:45.028Z,15.90
2022-07-31T00:17:11.849Z,15.90
2022-07-31T00:19:38.814Z,15.80
2022-07-31T00:22:05.804Z,15.70
2022-07-31T00:24:32.762Z,15.80
2022-07-31T00:27:00.115Z,15.70
2022-07-31T00:29:27.066Z,15.60
2022-07-31T00:31:53.856Z,15.50
2022-07-31T00:34:20.618Z,15.50
2022-07-31T00:36:47.425Z,15.50
2022-07-31T00:39:14.688Z,15.50
2022-07-31T00:41:45.983Z,15.50
2022-07-31T00:44:14.007Z,15.50
2022-07-31T00:46:42.123Z,15.40
2022-07-31T00:49:10.292Z,15.40
2022-07-31T00:51:38.149Z,15.40
2022-07-31T00:54:05.909Z,15.40
2022-07-31T00:56:32.728Z,15.30
2022-07-31T00:59:00.018Z,15.30
2022-07-31T01:01:27.820Z,15.30
2022-07-31T01:03:55.051Z,15.30
2022-07-31T01:06:21.931Z,15.30
2022-07-31T01:08:49.049Z,15.30
2022-07-31T01:11:22.331Z,15.30
2022-07-31T01:13:59.499Z,15.30
2022-07-31T01:16:28.987Z,15.30
2022-07-31T01:18:57.589Z,15.20
2022-07-31T01:21:39.875Z,15.10
2022-07-31T01:24:29.784Z,15.10
2022-07-31T01:27:06.402Z,15.10
2022-07-31T01:29:42.111Z,15.00
2022-07-31T01:32:14.844Z,15.10
2022-07-31T01:34:52.782Z,15.10
2022-07-31T01:37:35.960Z,15.10
2022-07-31T01:40:37.221Z,15.10
2022-07-31T01:43:08.802Z,15.10
2022-07-31T01:45:38.978Z,15.20
2022-07-31T01:48:07.012Z,15.20
2022-07-31T01:50:43.597Z,15.20
2022-07-31T01:53:14.475Z,15.20
2022-07-31T01:55:56.690Z,15.20
2022-07-31T01:58:33.650Z,15.20
2022-07-31T02:01:02.560Z,15.20
2022-07-31T02:03:44.432Z,15.10
2022-07-31T02:06:14.937Z,15.20
2022-07-31T02:08:47.405Z,15.20
2022-07-31T02:11:17.207Z,15.20
2022-07-31T02:13:45.412Z,15.20
2022-07-31T02:16:14.179Z,15.10
2022-07-31T02:18:42.675Z,15.10
2022-07-31T02:21:10.320Z,15.10
2022-07-31T02:23:38.475Z,15.10
2022-07-31T02:26:07.288Z,15.10
2022-07-31T02:28:38.047Z,15.10
2022-07-31T02:31:08.299Z,15.10
2022-07-31T02:33:36.899Z,15.10
2022-07-31T02:36:04.883Z,15.00
2022-07-31T02:38:33.641Z,15.10
2022-07-31T02:41:04.849Z,15.00
2022-07-31T02:43:33.436Z,14.90
2022-07-31T02:46:00.696Z,14.90
2022-07-31T02:48:28.175Z,14.90
2022-07-31T02:50:56.096Z,14.90
2022-07-31T02:53:23.143Z,14.90
2022-07-31T02:55:51.758Z,14.90
2022-07-31T02:58:18.757Z,14.90
2022-07-31T03:00:46.107Z,14.90
2022-07-31T03:03:13.133Z,14.90
2022-07-31T03:05:40.021Z,14.90
2022-07-31T03:08:06.872Z,14.90
2022-07-31T03:10:33.745Z,14.90
2022-07-31T03:13:02.620Z,14.90
2022-07-31T03:15:30.649Z,15.00
2022-07-31T03:17:58.502Z,15.00
2022-07-31T03:20:26.765Z,15.00
2022-07-31T03:22:53.878Z,15.00
2022-07-31T03:25:21.342Z,15.00
2022-07-31T03:27:52.396Z,15.10
2022-07-31T03:30:26.510Z,15.10
2022-07-31T03:32:54.952Z,15.10
2022-07-31T03:35:22.524Z,15.10
2022-07-31T03:37:49.678Z,15.10
2022-07-31T03:40:16.487Z,15.10
2022-07-31T03:42:44.383Z,15.10
2022-07-31T03:45:12.143Z,15.10
2022-07-31T03:47:39.000Z,15.10
2022-07-31T03:50:06.659Z,15.10
2022-07-31T03:52:33.588Z,15.10
2022-07-31T03:55:00.727Z,15.10
2022-07-31T03:57:31.447Z,15.10
2022-07-31T04:00:03.026Z,15.10
2022-07-31T04:02:31.671Z,15.10
2022-07-31T04:04:59.548Z,15.20
2022-07-31T04:07:26.712Z,15.20
2022-07-31T04:09:53.715Z,15.20
2022-07-31T04:12:20.766Z,15.20
2022-07-31T04:14:47.917Z,15.30
2022-07-31T04:17:14.990Z,15.30
2022-07-31T04:19:41.875Z,15.30
2022-07-31T04:22:09.064Z,15.30
2022-07-31T04:24:36.132Z,15.30
2022-07-31T04:27:07.018Z,15.40
2022-07-31T04:29:36.446Z,15.40
2022-07-31T04:32:04.267Z,15.40
2022-07-31T04:34:31.234Z,15.50
2022-07-31T04:36:58.867Z,15.40
2022-07-31T04:39:25.769Z,15.50
2022-07-31T04:41:52.613Z,15.40
2022-07-31T04:44:19.477Z,15.50
2022-07-31T04:46:46.354Z,15.50
2022-07-31T04:49:15.274Z,15.50
2022-07-31T04:51:43.541Z,15.50
2022-07-31T04:54:11.078Z,15.50
2022-07-31T04:56:41.972Z,15.50
2022-07-31T04:59:16.387Z,15.50
2022-07-31T05:01:45.062Z,15.60
2022-07-31T05:04:12.473Z,15.50
2022-07-31T05:06:41.523Z,15.50
2022-07-31T05:09:18.338Z,15.50
2022-07-31T05:11:47.180Z,15.50
2022-07-31T05:14:16.779Z,15.60
2022-07-31T05:16:44.205Z,15.70
2022-07-31T05:19:14.824Z,15.80
2022-07-31T05:21:53.447Z,15.90
2022-07-31T05:24:33.079Z,16.00
2022-07-31T05:27:01.597Z,16.20
2022-07-31T05:29:29.012Z,16.30
2022-07-31T05:34:30.760Z,16.50
2022-07-31T05:37:01.267Z,16.60
2022-07-31T05:39:28.774Z,16.70
2022-07-31T05:41:55.607Z,16.80
2022-07-31T05:44:22.393Z,16.90
2022-07-31T05:49:16.200Z,17.10
2022-07-31T05:51:44.464Z,17.20
2022-07-31T05:54:11.296Z,17.20
2022-07-31T05:56:38.293Z,17.30
2022-07-31T05:59:05.239Z,17.40
2022-07-31T06:01:32.177Z,17.40
2022-07-31T06:03:58.997Z,17.50
2022-07-31T06:06:26.029Z,17.50
2022-07-31T06:08:53.004Z,17.60
2022-07-31T06:11:19.878Z,17.70
2022-07-31T06:13:46.676Z,17.80
2022-07-31T06:16:16.244Z,17.90
2022-07-31T06:18:43.207Z,17.90
2022-07-31T06:23:37.232Z,18.10
2022-07-31T06:26:04.859Z,18.20
2022-07-31T06:28:47.954Z,18.30
2022-07-31T06:31:22.551Z,18.40
2022-07-31T06:33:50.779Z,18.50
2022-07-31T06:36:18.375Z,18.50
2022-07-31T06:38:46.070Z,18.60
2022-07-31T06:41:33.147Z,18.70
2022-07-31T06:44:00.047Z,18.70
2022-07-31T06:46:27.516Z,18.90
2022-07-31T06:48:54.369Z,18.90
2022-07-31T06:51:30.929Z,19.00
2022-07-31T06:53:59.241Z,18.90
2022-07-31T06:56:26.075Z,19.00
2022-07-31T06:58:53.342Z,19.00
2022-07-31T07:01:20.206Z,19.10
2022-07-31T07:03:47.863Z,19.20
2022-07-31T07:06:15.022Z,19.20
2022-07-31T07:08:42.472Z,19.40
2022-07-31T07:11:12.321Z,19.40
2022-07-31T07:13:45.655Z,19.50
2022-07-31T07:16:14.245Z,19.60
2022-07-31T07:18:41.071Z,19.70
2022-07-31T07:21:07.901Z,19.80
2022-07-31T07:23:35.789Z,19.80
2022-07-31T07:26:03.194Z,19.80
2022-07-31T07:28:31.315Z,19.90
2022-07-31T07:30:58.539Z,19.90
2022-07-31T07:33:40.674Z,19.90
2022-07-31T07:36:24.135Z,19.80
2022-07-31T07:38:54.879Z,19.70
2022-07-31T07:41:22.823Z,19.70
2022-07-31T07:46:26.224Z,19.60
2022-07-31T07:48:53.140Z,19.60
2022-07-31T07:51:20.738Z,19.60
2022-07-31T07:53:47.810Z,19.70
2022-07-31T07:56:14.690Z,19.90
2022-07-31T07:58:41.534Z,20.10
2022-07-31T08:01:08.600Z,20.20
2022-07-31T08:03:49.598Z,20.40
2022-07-31T08:06:20.507Z,20.50
2022-07-31T08:08:47.872Z,20.60
2022-07-31T08:11:17.099Z,20.70
2022-07-31T08:13:50.145Z,20.90
2022-07-31T08:16:20.561Z,21.10
2022-07-31T08:18:48.541Z,21.30
2022-07-31T08:21:15.394Z,21.60
2022-07-31T08:23:42.313Z,22.10
2022-07-31T08:26:09.311Z,22.20
2022-07-31T08:28:36.416Z,22.50
2022-07-31T08:31:03.904Z,22.60
2022-07-31T08:33:33.031Z,22.70
2022-07-31T08:36:00.865Z,22.80
2022-07-31T08:38:28.750Z,22.80
2022-07-31T08:40:55.691Z,22.70
2022-07-31T08:44:01.890Z,22.70
2022-07-31T08:46:10.017Z,22.60
2022-07-31T08:48:40.959Z,22.60
2022-07-31T08:51:11.511Z,22.60
2022-07-31T08:53:39.972Z,22.70
2022-07-31T08:56:09.226Z,22.80
2022-07-31T08:58:39.577Z,22.80
2022-07-31T09:01:08.721Z,23.00
2022-07-31T09:03:36.359Z,23.30
2022-07-31T09:06:04.243Z,23.60
2022-07-31T09:08:36.182Z,23.70
2022-07-31T09:11:11.317Z,23.70
2022-07-31T09:13:38.778Z,23.80
2022-07-31T09:16:06.435Z,23.90
2022-07-31T09:18:33.438Z,24.00
2022-07-31T09:21:05.877Z,24.00
2022-07-31T09:23:32.909Z,24.20
2022-07-31T09:26:04.068Z,24.50
2022-07-31T09:28:41.076Z,25.00
2022-07-31T09:31:09.976Z,25.30
2022-07-31T09:33:43.841Z,25.50
2022-07-31T09:36:13.904Z,25.70
2022-07-31T09:38:43.018Z,25.60
2022-07-31T09:41:57.892Z,25.70
2022-07-31T09:44:10.146Z,25.60
2022-07-31T09:46:44.825Z,25.70
2022-07-31T09:49:12.599Z,25.70
2022-07-31T09:51:45.022Z,25.70
2022-07-31T09:54:23.090Z,25.50
2022-07-31T09:56:50.438Z,25.50
2022-07-31T09:59:17.582Z,25.60
2022-07-31T10:01:48.879Z,25.70
2022-07-31T10:04:18.109Z,25.70
2022-07-31T10:06:50.286Z,25.50
2022-07-31T10:09:20.031Z,25.50
2022-07-31T10:11:48.834Z,25.40
2022-07-31T10:14:24.178Z,25.40
2022-07-31T10:16:56.459Z,25.60
2022-07-31T10:19:24.214Z,25.80
2022-07-31T10:21:56.848Z,25.90
2022-07-31T10:24:28.389Z,26.00
2022-07-31T10:27:01.214Z,26.30
2022-07-31T10:29:32.875Z,26.60
2022-07-31T10:32:00.512Z,26.80
2022-07-31T10:34:28.498Z,27.00
2022-07-31T10:36:59.390Z,27.00
2022-07-31T10:39:35.842Z,27.00
2022-07-31T10:42:35.153Z,27.10
2022-07-31T10:45:14.169Z,27.20
2022-07-31T10:47:48.850Z,27.10
2022-07-31T10:50:23.949Z,27.30
2022-07-31T10:52:51.282Z,27.30
2022-07-31T10:55:22.539Z,27.10
2022-07-31T10:57:57.163Z,27.30
2022-07-31T11:00:28.333Z,27.50
2022-07-31T11:02:57.194Z,27.40
2022-07-31T11:05:26.001Z,27.40
2022-07-31T11:08:07.665Z,27.60
2022-07-31T11:10:35.715Z,27.70
2022-07-31T11:13:07.750Z,28.00
2022-07-31T11:15:37.457Z,28.00
2022-07-31T11:18:20.201Z,27.90
2022-07-31T11:21:22.823Z,27.60
2022-07-31T11:23:55.991Z,27.60
2022-07-31T11:26:32.827Z,27.50
2022-07-31T11:30:01.278Z,27.50
2022-07-31T11:34:26.047Z,27.40
2022-07-31T11:36:53.023Z,27.50
2022-07-31T11:39:23.734Z,27.20
2022-07-31T11:42:04.993Z,26.90
2022-07-31T11:44:34.835Z,26.60
2022-07-31T11:47:02.193Z,26.60
2022-07-31T11:49:47.829Z,26.50
2022-07-31T11:52:31.346Z,26.60
2022-07-31T11:55:08.814Z,26.70
2022-07-31T11:57:51.730Z,26.80
2022-07-31T12:00:27.053Z,27.00
2022-07-31T12:02:57.898Z,27.00
2022-07-31T12:05:37.712Z,27.30
2022-07-31T12:08:06.753Z,27.60
2022-07-31T12:10:33.964Z,27.70
2022-07-31T12:13:01.939Z,27.50
2022-07-31T12:15:28.772Z,27.30
2022-07-31T12:18:03.065Z,27.60
2022-07-31T12:20:35.821Z,27.40
2022-07-31T12:23:05.105Z,27.70
2022-07-31T12:25:46.419Z,28.10
2022-07-31T12:28:14.067Z,28.10
2022-07-31T12:30:42.191Z,28.50
2022-07-31T12:33:11.109Z,28.40
2022-07-31T12:35:55.617Z,28.70
2022-07-31T12:38:41.044Z,28.90
2022-07-31T12:41:11.849Z,28.80
2022-07-31T12:43:38.778Z,28.90
2022-07-31T12:46:10.667Z,29.20
2022-07-31T12:48:41.033Z,29.30
2022-07-31T12:51:09.353Z,29.30
2022-07-31T12:53:36.163Z,29.20
2022-07-31T12:56:03.029Z,29.20
2022-07-31T12:58:29.999Z,29.60
2022-07-31T13:00:57.251Z,29.60
2022-07-31T13:03:24.069Z,29.40
2022-07-31T13:06:06.107Z,29.60
2022-07-31T13:08:33.836Z,29.70
2022-07-31T13:11:00.652Z,29.90
2022-07-31T13:13:27.496Z,30.30
2022-07-31T13:15:54.466Z,29.80
2022-07-31T13:18:21.280Z,29.60
2022-07-31T13:20:48.093Z,29.70
2022-07-31T13:23:14.903Z,29.80
2022-07-31T13:25:41.794Z,29.60
2022-07-31T13:28:08.692Z,29.10
2022-07-31T13:30:35.504Z,28.90
2022-07-31T13:33:02.287Z,28.80
2022-07-31T13:35:29.399Z,29.10
2022-07-31T13:37:56.766Z,29.60
2022-07-31T13:40:43.992Z,30.00
2022-07-31T13:43:11.207Z,30.20
2022-07-31T13:45:38.507Z,29.90
2022-07-31T13:48:09.336Z,29.60
2022-07-31T13:50:37.953Z,29.60
2022-07-31T13:53:05.142Z,29.70
2022-07-31T13:55:32.198Z,30.20
2022-07-31T13:57:59.341Z,30.30
2022-07-31T14:00:28.115Z,30.00
2022-07-31T14:02:54.989Z,30.10
2022-07-31T14:05:21.942Z,30.10
2022-07-31T14:07:51.977Z,30.10
2022-07-31T14:10:21.040Z,29.80
2022-07-31T14:12:48.574Z,29.60
2022-07-31T14:15:16.669Z,29.50
2022-07-31T14:17:43.873Z,29.50
2022-07-31T14:20:12.208Z,29.60
2022-07-31T14:22:39.221Z,29.70
2022-07-31T14:25:06.505Z,30.10
2022-07-31T14:27:34.585Z,30.50
2022-07-31T14:30:02.142Z,30.90
2022-07-31T14:32:30.729Z,31.00
2022-07-31T14:34:57.612Z,30.70
2022-07-31T14:37:24.588Z,30.60
2022-07-31T14:39:51.655Z,30.20
2022-07-31T14:42:22.356Z,30.40
2022-07-31T14:44:53.538Z,30.50
2022-07-31T14:47:20.634Z,30.40
2022-07-31T14:50:07.522Z,30.40
2022-07-31T14:52:34.686Z,29.90
2022-07-31T14:55:01.685Z,29.40
2022-07-31T14:57:30.079Z,29.10
2022-07-31T14:59:57.282Z,29.30
2022-07-31T15:02:24.543Z,29.20
2022-07-31T15:04:52.417Z,29.20
2022-07-31T15:07:38.455Z,29.10
2022-07-31T15:10:09.284Z,29.20
2022-07-31T15:12:36.197Z,29.30
2022-07-31T15:15:03.951Z,29.50
2022-07-31T15:17:30.910Z,29.40
2022-07-31T15:19:57.751Z,29.40
2022-07-31T15:22:24.682Z,29.30
2022-07-31T15:24:51.646Z,29.20
2022-07-31T15:27:19.915Z,29.40
2022-07-31T15:30:03.737Z,29.50
2022-07-31T15:32:38.173Z,29.50
2022-07-31T15:35:07.306Z,29.60
2022-07-31T15:37:36.544Z,29.60
2022-07-31T15:40:06.351Z,29.00
2022-07-31T15:42:34.324Z,28.70
2022-07-31T15:45:01.366Z,28.70
2022-07-31T15:47:28.281Z,28.50
2022-07-31T15:49:55.277Z,28.50
2022-07-31T15:52:22.259Z,28.70
2022-07-31T15:54:49.677Z,28.80
2022-07-31T15:57:22.822Z,28.80
2022-07-31T15:59:51.097Z,28.60
2022-07-31T16:02:18.089Z,28.50
2022-07-31T16:04:52.673Z,28.30
2022-07-31T16:08:31.638Z,28.10
2022-07-31T16:10:16.596Z,27.90
2022-07-31T16:12:48.273Z,27.80
2022-07-31T16:15:16.749Z,27.90
2022-07-31T16:17:44.883Z,27.90
2022-07-31T16:20:20.791Z,27.80
2022-07-31T16:22:56.596Z,27.70
2022-07-31T16:25:24.610Z,27.50
2022-07-31T16:27:51.760Z,27.40
2022-07-31T16:30:18.682Z,27.40
2022-07-31T16:32:45.597Z,27.30
2022-07-31T16:35:12.965Z,27.30
2022-07-31T16:37:50.282Z,27.30
2022-07-31T16:40:30.292Z,27.20
2022-07-31T16:43:48.122Z,27.00
2022-07-31T16:45:53.683Z,26.90
2022-07-31T16:48:20.552Z,26.80
2022-07-31T16:50:52.944Z,26.80
2022-07-31T16:54:09.972Z,26.80
2022-07-31T16:56:10.710Z,26.90
2022-07-31T16:58:37.595Z,26.90
2022-07-31T17:01:04.742Z,26.90
2022-07-31T17:04:00.293Z,26.90
2022-07-31T17:06:18.538Z,26.80
2022-07-31T17:09:16.499Z,26.70
2022-07-31T17:11:47.060Z,26.70
2022-07-31T17:14:14.070Z,26.60
2022-07-31T17:16:46.364Z,26.50
2022-07-31T17:19:13.490Z,26.50
2022-07-31T17:21:43.878Z,26.40
2022-07-31T17:24:15.842Z,26.40
2022-07-31T17:26:43.641Z,26.30
2022-07-31T17:29:10.532Z,26.30
2022-07-31T17:31:37.364Z,26.30
2022-07-31T17:36:38.476Z,26.10
2022-07-31T17:39:05.720Z,26.00
2022-07-31T17:41:32.901Z,26.00
2022-07-31T17:43:59.754Z,25.90
2022-07-31T17:46:29.931Z,25.90
2022-07-31T17:49:04.551Z,25.90
2022-07-31T17:51:31.521Z,25.80
2022-07-31T17:53:59.476Z,25.80
2022-07-31T17:56:26.845Z,25.70
2022-07-31T17:58:55.626Z,25.70
2022-07-31T18:01:28.416Z,25.60
2022-07-31T18:03:55.708Z,25.60
2022-07-31T18:06:22.553Z,25.50
2022-07-31T18:08:49.476Z,25.50
2022-07-31T18:11:16.572Z,25.40
2022-07-31T18:13:48.522Z,25.30
2022-07-31T18:16:30.098Z,25.30
2022-07-31T18:18:56.961Z,25.20
2022-07-31T18:21:23.799Z,25.20
2022-07-31T18:23:50.632Z,25.10
2022-07-31T18:26:17.555Z,25.10
2022-07-31T18:28:44.401Z,24.90
2022-07-31T18:31:32.336Z,25.00
2022-07-31T18:33:58.037Z,24.90
2022-07-31T18:36:24.867Z,24.80
2022-07-31T18:38:52.236Z,24.70
2022-07-31T18:41:20.573Z,24.50
2022-07-31T18:43:47.401Z,24.40
2022-07-31T18:46:14.200Z,24.30
2022-07-31T18:48:41.161Z,24.20
2022-07-31T18:51:08.362Z,24.10
2022-07-31T18:53:35.259Z,24.00
2022-07-31T18:56:02.101Z,23.90
2022-07-31T18:58:28.919Z,23.80
2022-07-31T19:00:55.927Z,23.70
2022-07-31T19:03:24.406Z,23.60
2022-07-31T19:05:53.004Z,23.50
2022-07-31T19:08:20.761Z,23.40
2022-07-31T19:10:49.752Z,23.30
2022-07-31T19:13:20.721Z,23.20
2022-07-31T19:15:48.387Z,23.10
2022-07-31T19:18:15.697Z,23.10
2022-07-31T19:20:58.903Z,23.00
2022-07-31T19:23:32.884Z,22.90
2022-07-31T19:26:03.843Z,22.80
2022-07-31T19:28:35.264Z,22.70
2022-07-31T19:31:02.291Z,22.70
2022-07-31T19:33:29.101Z,22.60
2022-07-31T19:36:01.268Z,22.60
2022-07-31T19:38:29.003Z,22.50
2022-07-31T19:40:55.782Z,22.50
2022-07-31T19:43:22.721Z,22.50
2022-07-31T19:46:09.751Z,22.50
2022-07-31T19:48:36.909Z,22.40
2022-07-31T19:51:04.280Z,22.40
2022-07-31T19:53:31.344Z,22.30
2022-07-31T19:55:58.266Z,22.30
2022-07-31T19:58:25.133Z,22.20
2022-07-31T20:00:51.936Z,22.10
2022-07-31T20:03:18.806Z,22.10
2022-07-31T20:05:45.662Z,22.00
2022-07-31T20:08:12.452Z,21.90
2022-07-31T20:10:39.314Z,21.80
2022-07-31T20:13:06.203Z,21.80
2022-07-31T20:15:52.016Z,21.70
2022-07-31T20:18:27.430Z,21.60
2022-07-31T20:21:03.533Z,21.50
2022-07-31T20:23:31.292Z,21.40
2022-07-31T20:25:58.684Z,21.40
2022-07-31T20:28:26.763Z,21.40
2022-07-31T20:30:53.891Z,21.30
2022-07-31T20:33:20.779Z,21.30
2022-07-31T20:35:50.136Z,21.20
2022-07-31T20:38:21.599Z,21.20
2022-07-31T20:40:53.612Z,21.10
2022-07-31T20:43:25.953Z,21.00
2022-07-31T20:45:54.279Z,20.90
2022-07-31T20:48:24.197Z,20.90
2022-07-31T20:50:52.045Z,20.80
2022-07-31T20:53:20.957Z,20.70
2022-07-31T20:55:50.042Z,20.70
2022-07-31T20:58:19.104Z,20.70
2022-07-31T21:00:47.545Z,20.60
2022-07-31T21:03:15.340Z,20.60
2022-07-31T21:05:42.320Z,20.50
2022-07-31T21:08:10.618Z,20.50
2022-07-31T21:10:37.604Z,20.40
2022-07-31T21:13:04.562Z,20.40
2022-07-31T21:15:41.966Z,20.30
2022-07-31T21:18:19.721Z,20.30
2022-07-31T21:20:51.977Z,20.30
2022-07-31T21:23:24.234Z,20.30
2022-07-31T21:25:57.185Z,20.30
2022-07-31T21:28:25.733Z,20.30
2022-07-31T21:30:55.898Z,20.30
2022-07-31T21:33:24.856Z,20.20
2022-07-31T21:35:52.085Z,20.30
2022-07-31T21:38:19.364Z,20.30
2022-07-31T21:40:46.800Z,20.30
2022-07-31T21:43:16.895Z,20.20
2022-07-31T21:45:55.746Z,20.20
2022-07-31T21:48:28.957Z,20.20
2022-07-31T21:50:56.011Z,20.20
2022-07-31T21:53:23.868Z,20.10
2022-07-31T21:55:51.548Z,20.10
2022-07-31T21:58:18.911Z,20.00
2022-07-31T22:00:45.859Z,20.00
2022-07-31T22:03:12.793Z,19.90
2022-07-31T22:05:58.444Z,19.90
2022-07-31T22:08:25.274Z,19.80
2022-07-31T22:10:52.808Z,19.90
2022-07-31T22:13:20.499Z,19.90
2022-07-31T22:15:58.501Z,19.90
2022-07-31T22:18:31.024Z,19.90
2022-07-31T22:20:58.585Z,19.90
2022-07-31T22:23:27.564Z,19.90
2022-07-31T22:25:55.006Z,19.90
2022-07-31T22:28:22.572Z,19.90
2022-07-31T22:30:49.731Z,19.90
2022-07-31T22:33:16.827Z,19.90
2022-07-31T22:35:44.167Z,19.90
2022-07-31T22:38:13.758Z,20.00
2022-07-31T22:40:41.295Z,19.90
2022-07-31T22:44:09.379Z,19.90
2022-07-31T22:46:00.081Z,20.00
2022-07-31T22:48:28.060Z,19.90
2022-07-31T22:50:55.947Z,19.90
2022-07-31T22:53:23.981Z,19.90
2022-07-31T22:55:53.059Z,19.90
2022-07-31T22:58:20.550Z,19.80
2022-07-31T23:00:48.679Z,19.80
2022-07-31T23:03:16.579Z,19.80
2022-07-31T23:06:29.112Z,19.70
2022-07-31T23:08:30.139Z,19.70
2022-07-31T23:10:56.959Z,19.60
2022-07-31T23:13:23.801Z,19.60
2022-07-31T23:15:50.620Z,19.50
2022-07-31T23:18:17.481Z,19.40
2022-07-31T23:20:44.277Z,19.40
2022-07-31T23:23:11.077Z,19.40
2022-07-31T23:25:37.883Z,19.30
2022-07-31T23:28:04.845Z,19.30
2022-07-31T23:30:31.611Z,19.30
2022-07-31T23:32:58.434Z,19.20
2022-07-31T23:35:25.309Z,19.20
2022-07-31T23:37:52.168Z,19.20
2022-07-31T23:40:18.939Z,19.10
2022-07-31T23:42:45.710Z,19.10
2022-07-31T23:45:15.929Z,19.00
2022-07-31T23:47:45.717Z,19.00
2022-07-31T23:50:13.678Z,18.90
2022-07-31T23:52:40.553Z,18.90
2022-07-31T23:55:07.683Z,18.80
2022-07-31T23:57:36.157Z,18.80
